Krimpen aan den IJssel, Netherlands
Current Conditions -  °F | °C
As of 3:25 AM on Sunday 21 Dec 2014 (Local Time) from EHRD Reporting Station
Clear Clear  
Wind Chill: 36°   Ceiling: Unl
Heat Index: 41°   Visibility: 6mi
Dew Point: 37°   Wind: 7mph
Humidity: 87%   Direction: 240°WSW
Pressure: 30.36"   Gusts: NA
Location:  51.92°N, 4.6°E
Report Text: EHRD 210225Z AUTO 24006KT 9999 NSC 05/03 Q1028 NOSIG
Loading
Personal Weather Stations






























Interactive Weather Map New forecast layout! Learn more

10-Day Weather Forecast

Advertisements
Track Severe Weather on mobile